createdAt,value
2022-09-11T00:01:33.489Z,8.77
2022-09-11T00:04:02.835Z,8.15
2022-09-11T00:06:31.250Z,9.50
2022-09-11T00:09:02.311Z,11.02
2022-09-11T00:11:36.388Z,9.27
2022-09-11T00:14:04.808Z,9.82
2022-09-11T00:16:37.423Z,7.60
2022-09-11T00:19:11.755Z,6.75
2022-09-11T00:21:39.523Z,7.03
2022-09-11T00:24:09.967Z,6.18
2022-09-11T00:26:42.834Z,6.63
2022-09-11T00:29:12.001Z,5.60
2022-09-11T00:31:39.961Z,5.03
2022-09-11T00:34:07.639Z,4.82
2022-09-11T00:36:41.429Z,5.30
2022-09-11T00:39:12.486Z,4.57
2022-09-11T00:41:42.965Z,4.97
2022-09-11T00:44:13.904Z,4.65
2022-09-11T00:46:48.310Z,55.33
2022-09-11T00:49:22.422Z,24.05
2022-09-11T00:51:54.577Z,7.10
2022-09-11T00:54:29.168Z,5.78
2022-09-11T00:56:58.824Z,4.50
2022-09-11T00:59:31.421Z,3.95
2022-09-11T01:01:59.111Z,2.97
2022-09-11T01:04:29.313Z,3.85
2022-09-11T01:06:58.044Z,2.60
2022-09-11T01:09:29.827Z,4.53
2022-09-11T01:12:09.931Z,3.40
2022-09-11T01:14:50.018Z,3.28
2022-09-11T01:17:40.801Z,3.40
2022-09-11T01:20:33.119Z,3.28
2022-09-11T01:23:30.748Z,3.40
2022-09-11T01:26:07.606Z,3.50
2022-09-11T01:29:13.424Z,3.25
2022-09-11T01:31:48.142Z,3.28
2022-09-11T01:34:55.136Z,3.60
2022-09-11T01:37:34.586Z,3.08
2022-09-11T01:40:11.023Z,3.60
2022-09-11T01:42:43.422Z,3.13
2022-09-11T01:45:16.950Z,3.10
2022-09-11T01:47:47.325Z,4.13
2022-09-11T01:50:18.716Z,3.50
2022-09-11T01:52:53.366Z,3.42
2022-09-11T01:58:00.658Z,3.50
2022-09-11T02:00:32.421Z,3.28
2022-09-11T02:03:37.160Z,3.45
2022-09-11T02:06:28.725Z,3.58
2022-09-11T02:09:01.084Z,3.15
2022-09-11T02:11:34.136Z,2.67
2022-09-11T02:14:39.116Z,3.20
2022-09-11T02:17:18.379Z,3.30
2022-09-11T02:19:46.246Z,3.42
2022-09-11T02:22:14.218Z,3.00
2022-09-11T02:24:41.869Z,2.88
2022-09-11T02:27:13.516Z,3.50
2022-09-11T02:29:42.847Z,3.80
2022-09-11T02:32:11.337Z,3.10
2022-09-11T02:34:42.832Z,2.67
2022-09-11T02:37:52.195Z,3.08
2022-09-11T02:40:42.058Z,3.67
2022-09-11T02:43:23.345Z,3.05
2022-09-11T02:46:25.590Z,3.60
2022-09-11T02:49:14.138Z,3.22
2022-09-11T02:52:03.250Z,3.20
2022-09-11T02:54:40.279Z,3.90
2022-09-11T02:57:19.641Z,3.85
2022-09-11T02:59:58.382Z,3.00
2022-09-11T03:02:27.995Z,2.97
2022-09-11T03:04:56.826Z,3.20
2022-09-11T03:07:25.890Z,3.45
2022-09-11T03:09:53.446Z,3.08
2022-09-11T03:12:22.803Z,3.97
2022-09-11T03:14:52.213Z,2.75
2022-09-11T03:17:21.968Z,3.38
2022-09-11T03:19:49.683Z,3.10
2022-09-11T03:22:19.162Z,3.25
2022-09-11T03:24:48.714Z,3.10
2022-09-11T03:27:17.464Z,2.92
2022-09-11T03:29:46.194Z,3.10
2022-09-11T03:32:18.082Z,3.50
2022-09-11T03:34:47.832Z,3.10
2022-09-11T03:37:16.554Z,3.60
2022-09-11T03:39:45.163Z,2.92
2022-09-11T03:42:13.828Z,3.08
2022-09-11T03:44:43.441Z,3.00
2022-09-11T03:47:13.415Z,3.35
2022-09-11T03:49:40.892Z,2.97
2022-09-11T03:52:08.554Z,4.13
2022-09-11T03:54:36.221Z,3.65
2022-09-11T03:57:04.504Z,2.97
2022-09-11T03:59:32.272Z,3.33
2022-09-11T04:02:00.432Z,3.45
2022-09-11T04:04:28.176Z,4.20
2022-09-11T04:06:56.913Z,4.00
2022-09-11T04:09:25.809Z,3.70
2022-09-11T04:11:53.882Z,3.95
2022-09-11T04:14:26.460Z,4.22
2022-09-11T04:16:57.308Z,3.60
2022-09-11T04:19:26.352Z,3.63
2022-09-11T04:21:54.021Z,2.97
2022-09-11T04:24:22.457Z,4.72
2022-09-11T04:26:50.606Z,3.42
2022-09-11T04:29:22.681Z,5.85
2022-09-11T04:31:51.647Z,4.00
2022-09-11T04:34:19.890Z,3.88
2022-09-11T04:36:47.756Z,3.90
2022-09-11T04:39:20.161Z,3.42
2022-09-11T04:41:49.213Z,3.83
2022-09-11T04:44:17.208Z,3.92
2022-09-11T04:46:45.576Z,5.40
2022-09-11T04:49:14.875Z,3.83
2022-09-11T04:51:43.813Z,2.83
2022-09-11T04:54:21.372Z,3.47
2022-09-11T04:59:20.127Z,3.45
2022-09-11T05:02:05.494Z,4.00
2022-09-11T05:04:37.148Z,4.30
2022-09-11T05:07:05.542Z,5.30
2022-09-11T05:09:33.823Z,5.50
2022-09-11T05:12:02.774Z,5.82
2022-09-11T05:14:33.027Z,4.40
2022-09-11T05:17:02.619Z,4.40
2022-09-11T05:19:31.290Z,4.72
2022-09-11T05:21:58.825Z,4.47
2022-09-11T05:24:26.442Z,4.20
2022-09-11T05:26:59.540Z,4.32
2022-09-11T05:29:32.729Z,3.95
2022-09-11T05:32:04.256Z,5.13
2022-09-11T05:34:32.038Z,4.28
2022-09-11T05:37:02.448Z,4.03
2022-09-11T05:39:33.853Z,5.32
2022-09-11T05:42:04.763Z,3.78
2022-09-11T05:44:37.166Z,3.63
2022-09-11T05:47:05.803Z,4.40
2022-09-11T05:49:32.827Z,4.03
2022-09-11T05:52:02.163Z,3.33
2022-09-11T05:54:32.639Z,3.22
2022-09-11T05:57:07.387Z,4.47
2022-09-11T05:59:38.621Z,3.55
2022-09-11T06:02:06.953Z,3.45
2022-09-11T06:04:43.764Z,3.95
2022-09-11T06:07:13.062Z,4.65
2022-09-11T06:09:42.536Z,3.75
2022-09-11T06:12:12.966Z,4.80
2022-09-11T06:14:44.043Z,3.85
2022-09-11T06:17:12.734Z,4.05
2022-09-11T06:19:40.152Z,4.30
2022-09-11T06:22:08.018Z,4.15
2022-09-11T06:24:39.455Z,4.18
2022-09-11T06:27:07.117Z,3.33
2022-09-11T06:29:37.577Z,3.22
2022-09-11T06:32:07.085Z,3.50
2022-09-11T06:34:34.891Z,3.67
2022-09-11T06:37:06.619Z,4.18
2022-09-11T06:39:34.387Z,3.30
2022-09-11T06:42:03.009Z,3.08
2022-09-11T06:44:34.992Z,3.30
2022-09-11T06:47:04.030Z,3.47
2022-09-11T06:49:32.763Z,3.10
2022-09-11T06:52:18.752Z,3.40
2022-09-11T06:54:57.464Z,3.47
2022-09-11T06:57:25.365Z,4.05
2022-09-11T06:59:52.611Z,3.25
2022-09-11T07:02:21.617Z,2.90
2022-09-11T07:04:49.063Z,2.85
2022-09-11T07:07:18.133Z,3.30
2022-09-11T07:09:45.287Z,3.15
2022-09-11T07:12:13.550Z,2.97
2022-09-11T07:14:41.511Z,3.00
2022-09-11T07:17:16.783Z,2.85
2022-09-11T07:19:47.115Z,3.70
2022-09-11T07:22:15.696Z,2.75
2022-09-11T07:24:42.906Z,3.58
2022-09-11T07:27:10.446Z,3.10
2022-09-11T07:29:37.986Z,2.80
2022-09-11T07:32:05.337Z,3.22
2022-09-11T07:34:34.514Z,2.83
2022-09-11T07:37:05.818Z,2.40
2022-09-11T07:39:37.028Z,2.38
2022-09-11T07:42:09.192Z,2.35
2022-09-11T07:44:37.985Z,2.40
2022-09-11T07:47:05.801Z,2.35
2022-09-11T07:49:38.850Z,2.60
2022-09-11T07:52:05.958Z,2.80
2022-09-11T07:54:53.746Z,2.95
2022-09-11T07:57:25.107Z,3.88
2022-09-11T07:59:53.599Z,2.70
2022-09-11T08:02:22.715Z,2.60
2022-09-11T08:04:51.936Z,2.05
2022-09-11T08:07:19.590Z,3.38
2022-09-11T08:09:56.044Z,2.42
2022-09-11T08:12:36.091Z,2.53
2022-09-11T08:15:04.396Z,2.75
2022-09-11T08:17:32.997Z,2.47
2022-09-11T08:20:03.149Z,2.58
2022-09-11T08:22:30.958Z,2.10
2022-09-11T08:24:58.920Z,1.98
2022-09-11T08:27:27.069Z,2.42
2022-09-11T08:29:55.183Z,3.63
2022-09-11T08:32:24.095Z,2.22
2022-09-11T08:34:51.473Z,2.47
2022-09-11T08:37:20.583Z,2.35
2022-09-11T08:39:48.186Z,1.83
2022-09-11T08:42:18.202Z,2.40
2022-09-11T08:44:54.255Z,2.42
2022-09-11T08:47:39.965Z,1.92
2022-09-11T08:50:21.364Z,1.90
2022-09-11T08:52:50.478Z,2.22
2022-09-11T08:55:50.046Z,2.42
2022-09-11T08:58:37.585Z,1.70
2022-09-11T09:01:37.218Z,2.50
2022-09-11T09:04:27.572Z,2.53
2022-09-11T09:06:58.183Z,2.03
2022-09-11T09:09:48.895Z,1.70
2022-09-11T09:12:41.270Z,1.83
2022-09-11T09:15:36.957Z,1.85
2022-09-11T09:18:17.537Z,2.40
2022-09-11T09:21:01.099Z,1.70
2022-09-11T09:23:36.613Z,2.75
2022-09-11T09:26:04.327Z,1.80
2022-09-11T09:28:46.922Z,2.20
2022-09-11T09:31:21.343Z,1.70
2022-09-11T09:33:58.957Z,1.38
2022-09-11T09:36:44.225Z,1.67
2022-09-11T09:39:15.987Z,1.95
2022-09-11T09:42:11.333Z,1.80
2022-09-11T09:45:15.015Z,1.85
2022-09-11T09:47:48.087Z,1.55
2022-09-11T09:50:21.874Z,1.50
2022-09-11T09:52:51.739Z,1.48
2022-09-11T09:55:21.118Z,1.55
2022-09-11T09:57:48.852Z,1.75
2022-09-11T10:00:20.361Z,1.30
2022-09-11T10:02:56.620Z,1.80
2022-09-11T10:05:45.105Z,1.20
2022-09-11T10:08:33.790Z,1.50
2022-09-11T10:11:09.768Z,1.42
2022-09-11T10:13:41.376Z,1.42
2022-09-11T10:16:27.208Z,1.73
2022-09-11T10:18:56.105Z,1.60
2022-09-11T10:21:36.513Z,1.63
2022-09-11T10:24:20.126Z,1.20
2022-09-11T10:26:52.162Z,1.48
2022-09-11T10:29:30.143Z,1.20
2022-09-11T10:32:02.721Z,1.50
2022-09-11T10:34:41.192Z,1.30
2022-09-11T10:37:30.549Z,1.60
2022-09-11T10:40:19.645Z,1.35
2022-09-11T10:42:50.083Z,1.55
2022-09-11T10:45:21.894Z,1.20
2022-09-11T10:47:50.202Z,1.80
2022-09-11T10:50:19.048Z,1.27
2022-09-11T10:53:16.254Z,1.20
2022-09-11T10:55:51.688Z,1.48
2022-09-11T10:58:24.264Z,1.50
2022-09-11T11:00:52.213Z,1.20
2022-09-11T11:03:29.704Z,1.23
2022-09-11T11:06:19.506Z,1.35
2022-09-11T11:09:28.983Z,1.20
2022-09-11T11:12:01.602Z,4.82
2022-09-11T11:15:17.876Z,4.43
2022-09-11T11:18:01.380Z,0.88
2022-09-11T11:20:52.730Z,2.35
2022-09-11T11:23:32.478Z,2.33
2022-09-11T11:26:32.620Z,2.10
2022-09-11T11:29:18.516Z,1.35
2022-09-11T11:32:06.218Z,9.15
2022-09-11T11:35:03.126Z,1.70
2022-09-11T11:37:40.275Z,1.38
2022-09-11T11:40:18.376Z,2.22
2022-09-11T11:42:56.117Z,1.00
2022-09-11T11:46:02.490Z,2.97
2022-09-11T11:48:48.911Z,1.63
2022-09-11T11:51:22.107Z,1.42
2022-09-11T11:54:08.817Z,1.85
2022-09-11T11:56:47.366Z,2.10
2022-09-11T11:59:37.237Z,1.45
2022-09-11T12:02:10.748Z,2.42
2022-09-11T12:04:50.777Z,1.10
2022-09-11T12:07:33.286Z,1.15
2022-09-11T12:10:03.729Z,1.08
2022-09-11T12:12:36.917Z,4.57
2022-09-11T12:15:32.781Z,1.27
2022-09-11T12:18:02.984Z,1.10
2022-09-11T12:20:42.131Z,1.55
2022-09-11T12:23:31.176Z,1.02
2022-09-11T12:26:17.598Z,1.45
2022-09-11T12:28:45.563Z,1.10
2022-09-11T12:31:18.272Z,1.17
2022-09-11T12:33:50.957Z,1.00
2022-09-11T12:36:44.081Z,1.40
2022-09-11T12:39:34.742Z,1.38
2022-09-11T12:42:31.328Z,1.60
2022-09-11T12:45:04.315Z,3.15
2022-09-11T12:47:42.361Z,1.25
2022-09-11T12:50:12.303Z,1.02
2022-09-11T12:52:48.570Z,1.40
2022-09-11T12:55:39.920Z,1.67
2022-09-11T12:58:26.242Z,1.50
2022-09-11T13:01:14.976Z,1.73
2022-09-11T13:04:13.420Z,1.98
2022-09-11T13:06:48.394Z,1.90
2022-09-11T13:09:30.620Z,1.77
2022-09-11T13:12:26.980Z,2.08
2022-09-11T13:15:00.433Z,1.98
2022-09-11T13:17:33.701Z,1.50
2022-09-11T13:20:11.039Z,1.88
2022-09-11T13:22:38.762Z,1.80
2022-09-11T13:25:17.947Z,1.65
2022-09-11T13:28:06.954Z,2.10
2022-09-11T13:30:35.674Z,2.40
2022-09-11T13:33:19.435Z,5.55
2022-09-11T13:35:47.401Z,2.78
2022-09-11T13:38:20.618Z,3.35
2022-09-11T13:40:54.779Z,5.35
2022-09-11T13:43:28.795Z,3.78
2022-09-11T13:46:11.533Z,3.13
2022-09-11T13:48:39.234Z,3.00
2022-09-11T13:51:06.768Z,2.80
2022-09-11T13:53:36.265Z,2.60
2022-09-11T13:56:03.655Z,4.13
2022-09-11T13:58:40.173Z,4.03
2022-09-11T14:01:17.054Z,3.40
2022-09-11T14:03:47.475Z,3.40
2022-09-11T14:06:20.802Z,2.88
2022-09-11T14:08:52.085Z,3.35
2022-09-11T14:11:31.950Z,4.18
2022-09-11T14:14:06.883Z,3.58
2022-09-11T14:16:38.357Z,3.90
2022-09-11T14:19:22.561Z,2.67
2022-09-11T14:21:51.634Z,3.25
2022-09-11T14:24:33.600Z,3.55
2022-09-11T14:27:35.282Z,3.20
2022-09-11T14:30:36.180Z,2.80
2022-09-11T14:33:23.175Z,2.80
2022-09-11T14:35:54.645Z,2.85
2022-09-11T14:38:24.295Z,2.20
2022-09-11T14:40:57.162Z,2.08
2022-09-11T14:43:33.245Z,2.45
2022-09-11T14:46:03.806Z,2.10
2022-09-11T14:48:34.384Z,2.22
2022-09-11T14:51:09.879Z,3.05
2022-09-11T14:53:43.561Z,2.35
2022-09-11T14:56:12.217Z,2.00
2022-09-11T14:58:39.486Z,3.17
2022-09-11T15:01:07.958Z,2.53
2022-09-11T15:03:35.261Z,2.08
2022-09-11T15:06:03.500Z,2.10
2022-09-11T15:08:30.723Z,3.90
2022-09-11T15:10:58.511Z,3.72
2022-09-11T15:13:25.476Z,2.10
2022-09-11T15:15:54.151Z,2.13
2022-09-11T15:18:21.322Z,2.13
2022-09-11T15:20:48.575Z,2.30
2022-09-11T15:23:17.096Z,1.98
2022-09-11T15:25:45.202Z,2.05
2022-09-11T15:28:13.279Z,2.75
2022-09-11T15:30:42.518Z,2.60
2022-09-11T15:33:10.610Z,2.00
2022-09-11T15:35:38.424Z,2.17
2022-09-11T15:38:05.785Z,1.95
2022-09-11T15:40:36.460Z,2.63
2022-09-11T15:43:04.862Z,1.98
2022-09-11T15:45:33.434Z,1.70
2022-09-11T15:48:00.724Z,2.22
2022-09-11T15:50:30.269Z,2.17
2022-09-11T15:52:58.893Z,2.20
2022-09-11T15:55:30.247Z,2.28
2022-09-11T15:58:01.493Z,1.60
2022-09-11T16:00:30.279Z,2.08
2022-09-11T16:02:57.751Z,2.22
2022-09-11T16:05:25.911Z,6.28
2022-09-11T16:07:57.101Z,5.53
2022-09-11T16:10:24.437Z,4.40
2022-09-11T16:12:54.456Z,5.53
2022-09-11T16:15:24.061Z,5.65
2022-09-11T16:17:51.421Z,20.52
2022-09-11T16:20:19.348Z,19.88
2022-09-11T16:22:47.057Z,18.55
2022-09-11T16:25:16.117Z,12.32
2022-09-11T16:27:44.754Z,19.27
2022-09-11T16:30:41.608Z,22.02
2022-09-11T16:33:03.106Z,24.27
2022-09-11T16:35:32.748Z,20.17
2022-09-11T16:38:01.447Z,4.47
2022-09-11T16:40:29.548Z,2.70
2022-09-11T16:42:57.621Z,2.30
2022-09-11T16:45:25.659Z,5.35
2022-09-11T16:47:52.888Z,8.00
2022-09-11T16:50:20.119Z,6.95
2022-09-11T16:52:47.919Z,17.13
2022-09-11T16:55:15.864Z,20.83
2022-09-11T16:57:44.881Z,23.08
2022-09-11T17:00:14.600Z,22.17
2022-09-11T17:02:42.444Z,22.58
2022-09-11T17:05:10.651Z,20.92
2022-09-11T17:07:39.456Z,7.47
2022-09-11T17:10:07.939Z,49.60
2022-09-11T17:12:35.751Z,105.72
2022-09-11T17:15:04.384Z,86.35
2022-09-11T17:17:33.801Z,35.85
2022-09-11T17:20:02.044Z,17.27
2022-09-11T17:22:30.650Z,25.27
2022-09-11T17:24:58.731Z,14.48
2022-09-11T17:27:26.974Z,13.48
2022-09-11T17:29:54.888Z,10.30
2022-09-11T17:32:28.170Z,19.17
2022-09-11T17:34:59.327Z,12.60
2022-09-11T17:37:28.842Z,31.25
2022-09-11T17:39:58.997Z,46.65
2022-09-11T17:42:30.736Z,51.08
2022-09-11T17:45:01.099Z,5.85
2022-09-11T17:47:33.070Z,6.07
2022-09-11T17:50:04.065Z,16.38
2022-09-11T17:52:35.159Z,12.05
2022-09-11T17:55:06.754Z,13.95
2022-09-11T17:57:34.073Z,20.10
2022-09-11T18:00:03.217Z,5.05
2022-09-11T18:02:40.259Z,6.57
2022-09-11T18:05:09.146Z,12.98
2022-09-11T18:07:37.900Z,7.88
2022-09-11T18:10:06.985Z,6.15
2022-09-11T18:12:35.469Z,5.20
2022-09-11T18:15:04.111Z,6.60
2022-09-11T18:17:32.236Z,4.88
2022-09-11T18:19:59.189Z,6.03
2022-09-11T18:22:29.746Z,4.10
2022-09-11T18:24:59.872Z,4.28
2022-09-11T18:27:29.815Z,8.82
2022-09-11T18:29:57.069Z,7.95
2022-09-11T18:32:24.545Z,4.70
2022-09-11T18:34:52.057Z,5.43
2022-09-11T18:37:19.872Z,5.10
2022-09-11T18:39:48.988Z,4.78
2022-09-11T18:42:18.135Z,5.57
2022-09-11T18:44:46.048Z,3.22
2022-09-11T18:47:13.353Z,3.22
2022-09-11T18:49:40.506Z,2.97
2022-09-11T18:52:09.143Z,3.20
2022-09-11T18:54:37.320Z,3.60
2022-09-11T18:57:04.889Z,2.90
2022-09-11T18:59:32.809Z,3.00
2022-09-11T19:02:00.917Z,3.38
2022-09-11T19:04:29.522Z,3.83
2022-09-11T19:06:56.945Z,3.25
2022-09-11T19:09:25.121Z,3.53
2022-09-11T19:11:54.016Z,3.55
2022-09-11T19:14:22.297Z,3.50
2022-09-11T19:16:49.763Z,3.30
2022-09-11T19:19:17.842Z,3.05
2022-09-11T19:21:45.205Z,4.20
2022-09-11T19:24:13.420Z,4.38
2022-09-11T19:26:43.595Z,8.00
2022-09-11T19:29:13.534Z,4.50
2022-09-11T19:31:41.169Z,5.07
2022-09-11T19:34:12.073Z,7.57
2022-09-11T19:36:41.293Z,8.00
2022-09-11T19:39:10.938Z,6.75
2022-09-11T19:41:40.046Z,12.05
2022-09-11T19:44:12.243Z,6.88
2022-09-11T19:46:42.049Z,4.53
2022-09-11T19:49:09.987Z,5.80
2022-09-11T19:51:40.104Z,8.68
2022-09-11T19:54:08.081Z,6.57
2022-09-11T19:56:37.712Z,6.68
2022-09-11T19:59:07.429Z,5.55
2022-09-11T20:01:35.159Z,5.50
2022-09-11T20:04:03.721Z,5.47
2022-09-11T20:06:33.171Z,4.50
2022-09-11T20:09:35.202Z,4.40
2022-09-11T20:11:49.069Z,2.10
2022-09-11T20:14:16.850Z,2.50
2022-09-11T20:16:44.458Z,2.63
2022-09-11T20:19:11.967Z,2.05
2022-09-11T20:21:39.272Z,2.60
2022-09-11T20:24:07.452Z,1.80
2022-09-11T20:26:36.429Z,1.50
2022-09-11T20:29:09.395Z,1.83
2022-09-11T20:31:49.763Z,1.50
2022-09-11T20:34:22.109Z,2.00
2022-09-11T20:36:50.080Z,2.45
2022-09-11T20:39:17.396Z,1.60
2022-09-11T20:41:45.768Z,1.92
2022-09-11T20:44:13.037Z,3.20
2022-09-11T20:46:41.347Z,2.78
2022-09-11T20:49:08.517Z,1.75
2022-09-11T20:51:37.316Z,1.70
2022-09-11T20:54:04.664Z,1.58
2022-09-11T20:56:32.952Z,1.67
2022-09-11T20:59:00.898Z,2.03
2022-09-11T21:01:34.502Z,2.15
2022-09-11T21:04:04.398Z,2.60
2022-09-11T21:06:34.566Z,2.30
2022-09-11T21:09:08.780Z,1.98
2022-09-11T21:11:37.722Z,2.20
2022-09-11T21:14:06.739Z,2.33
2022-09-11T21:16:35.282Z,2.50
2022-09-11T21:19:03.706Z,2.40
2022-09-11T21:21:33.311Z,2.58
2022-09-11T21:24:04.113Z,2.08
2022-09-11T21:26:33.811Z,2.40
2022-09-11T21:29:03.890Z,2.58
2022-09-11T21:31:31.769Z,2.60
2022-09-11T21:33:59.867Z,5.72
2022-09-11T21:36:28.118Z,2.70
2022-09-11T21:38:55.583Z,3.00
2022-09-11T21:41:23.589Z,3.25
2022-09-11T21:43:50.867Z,3.08
2022-09-11T21:46:18.762Z,2.75
2022-09-11T21:48:45.832Z,3.33
2022-09-11T21:51:18.697Z,2.90
2022-09-11T21:53:48.116Z,3.15
2022-09-11T21:56:24.965Z,2.83
2022-09-11T21:58:53.537Z,3.00
2022-09-11T22:01:21.565Z,2.67
2022-09-11T22:03:50.361Z,2.75
2022-09-11T22:06:18.275Z,2.97
2022-09-11T22:08:47.344Z,3.70
2022-09-11T22:11:15.564Z,3.72
2022-09-11T22:13:43.777Z,2.65
2022-09-11T22:16:14.817Z,3.30
2022-09-11T22:18:43.121Z,3.10
2022-09-11T22:21:10.616Z,3.42
2022-09-11T22:23:38.478Z,3.08
2022-09-11T22:26:14.974Z,3.45
2022-09-11T22:28:44.564Z,4.65
2022-09-11T22:31:21.711Z,3.13
2022-09-11T22:33:50.608Z,2.50
2022-09-11T22:36:20.775Z,3.10
2022-09-11T22:38:49.582Z,3.58
2022-09-11T22:41:17.661Z,2.70
2022-09-11T22:43:48.238Z,2.60
2022-09-11T22:46:16.381Z,3.17
2022-09-11T22:48:44.035Z,3.25
2022-09-11T22:51:12.296Z,3.05
2022-09-11T22:53:39.928Z,3.25
2022-09-11T22:56:08.512Z,2.90
2022-09-11T22:58:36.088Z,2.67
2022-09-11T23:01:05.131Z,2.83
2022-09-11T23:03:32.235Z,3.00
2022-09-11T23:06:20.664Z,2.72
2022-09-11T23:08:49.334Z,2.83
2022-09-11T23:11:20.050Z,2.50
2022-09-11T23:13:49.542Z,1.70
2022-09-11T23:16:21.773Z,3.08
2022-09-11T23:19:00.442Z,2.40
2022-09-11T23:21:29.300Z,3.20
2022-09-11T23:23:58.235Z,2.78
2022-09-11T23:26:27.801Z,6.95
2022-09-11T23:28:55.932Z,2.83
2022-09-11T23:31:32.962Z,3.08
2022-09-11T23:34:06.827Z,2.40
2022-09-11T23:36:36.169Z,5.03
2022-09-11T23:39:03.871Z,4.10
2022-09-11T23:41:32.410Z,3.83
2022-09-11T23:44:00.189Z,4.43
2022-09-11T23:46:29.327Z,4.80
2022-09-11T23:48:56.481Z,3.13
2022-09-11T23:51:24.043Z,3.78
2022-09-11T23:53:52.453Z,4.93
2022-09-11T23:56:23.110Z,3.78
2022-09-11T23:58:51.556Z,4.55
